Titan — 9HA4287 — position and weather

sailwx.info

Track history (hours):
 
Tides and Currents Weather Stations Pressure Air Temp Water Temp Dewpoint Dewpoint Depression Visibility Wind Speed Wind Dir Waves Ship Positions

Titan

Last reported at 2017-Dec-11 17:01 UTC. Time now 2017-Dec-11 20:44 UTC.
Position N 53°60' E 008°18'.

Length 369 m; draft 13.9 m.

Type: Ship (hazmat cat A). MMSI: 249558000.

Date/timePositionNaut miles runAvg speedWind from/ knotsBaromVisibWave heightAir tempDewpointWater temp
2017-Dec-11 17:01N 53°60' E 008°18'815.1
2017-Dec-11 16:30N 53°59' E 008°05'815.5
2017-Dec-11 16:00N 54°03' E 007°54'611.3
2017-Dec-11 15:30N 54°06' E 007°45'4 6.8
2017-Dec-11 14:58N 54°07' E 007°39'9415.4
2017-Dec-11 08:51N 53°45' E 005°04'514.2
2017-Dec-11 08:31N 53°42' E 004°59'816.8
2017-Dec-11 08:00N 53°35' E 004°50'917.8
2017-Dec-11 07:30N 53°27' E 004°43'917.3
2017-Dec-11 07:00N 53°19' E 004°38'917.2
2017-Dec-11 06:30N 53°11' E 004°32'917.2
2017-Dec-11 06:01N 53°04' E 004°25'917.3
2017-Dec-11 05:30N 52°56' E 004°18'917.2
2017-Dec-11 05:01N 52°49' E 004°11'917.3
2017-Dec-11 04:31N 52°42' E 004°01'917.2
2017-Dec-11 04:00N 52°36' E 003°52'817.0
2017-Dec-11 03:30N 52°30' E 003°42'917.0
2017-Dec-11 02:58N 52°23' E 003°32'816.9
2017-Dec-11 02:31N 52°17' E 003°23'5617.1
2017-Dec-10 23:15N 51°37' E 002°22'417.2
2017-Dec-10 23:00N 51°33' E 002°18'917.7
2017-Dec-10 22:30N 51°27' E 002°08'917.8
2017-Dec-10 22:00N 51°20' E 001°59'917.9
2017-Dec-10 21:30N 51°13' E 001°49'918.2
2017-Dec-10 21:00N 51°06' E 001°41'917.9
2017-Dec-10 20:30N 50°59' E 001°31'917.9
2017-Dec-10 20:01N 50°51' E 001°25'918.0
2017-Dec-10 19:30N 50°43' E 001°20'2816.2
2017-Dec-10 17:49N 50°28' E 000°44'1616.0
2017-Dec-10 16:47N 50°24' E 000°19'616.2
2017-Dec-10 16:26N 50°23' E 000°10'716.2
2017-Dec-10 16:00N 50°21' W 000°00'816.4
2017-Dec-10 15:30N 50°19' W 000°13'816.2
2017-Dec-10 15:00N 50°17' W 000°25'816.0
2017-Dec-10 14:30N 50°15' W 000°38'4216.5
2017-Dec-10 11:58N 50°04' W 001°41'2216.8
2017-Dec-10 10:40N 49°58' W 002°13'316.4
2017-Dec-10 10:28N 49°57' W 002°18'716.2
2017-Dec-10 10:00N 49°54' W 002°29'816.4
2017-Dec-10 09:31N 49°51' W 002°41'1017.8
2017-Dec-10 08:58N 49°49' W 002°55'817.4
2017-Dec-10 08:30N 49°47' W 003°07'817.0
2017-Dec-10 08:01N 49°42' W 003°18'1016.7
2017-Dec-10 07:26N 49°37' W 003°30'4217.2
2017-Dec-10 05:00N 49°16' W 004°25'917.4
2017-Dec-10 04:30N 49°11' W 004°37'917.2
2017-Dec-10 04:00N 49°07' W 004°49'918.5
2017-Dec-10 03:30N 49°03' W 005°01'919.2
2017-Dec-10 03:00N 48°58' W 005°14'1019.1
2017-Dec-10 02:30N 48°53' W 005°26'918.9
2017-Dec-10 02:01N 48°47' W 005°38'1018.8
2017-Dec-10 01:29N 48°39' W 005°45'918.8
2017-Dec-10 01:00N 48°31' W 005°51'3218.9
2017-Dec-09 23:18N 48°02' W 006°14'52319.6
2017-Dec-08 20:35N 39°43' W 009°51'220.0
2017-Dec-08 20:30N 39°42' W 009°51'1020.2
2017-Dec-08 20:00N 39°31' W 009°51'1020.7
2017-Dec-08 19:30N 39°21' W 009°52'1020.5
2017-Dec-08 19:00N 39°11' W 009°53'1020.2
2017-Dec-08 18:30N 39°01' W 009°53'1020.2
2017-Dec-08 18:00N 38°51' W 009°53'1020.4
2017-Dec-08 17:30N 38°41' W 009°52'1020.5
2017-Dec-08 17:00N 38°31' W 009°48'1020.2
2017-Dec-08 16:30N 38°21' W 009°44'1020.3
2017-Dec-08 16:00N 38°11' W 009°41'1020.5
2017-Dec-08 15:30N 38°01' W 009°37'1020.8
2017-Dec-08 15:00N 37°51' W 009°33'1020.5
2017-Dec-08 14:30N 37°41' W 009°30'1120.4
2017-Dec-08 13:59N 37°31' W 009°27'2920.4
2017-Dec-08 12:34N 37°02' W 009°22'320.1
2017-Dec-08 12:25N 36°60' W 009°21'819.7
2017-Dec-08 12:00N 36°52' W 009°17'1019.6
2017-Dec-08 11:30N 36°46' W 009°08'918.5
2017-Dec-08 11:00N 36°42' W 008°57'918.2
2017-Dec-08 10:30N 36°39' W 008°47'918.7
2017-Dec-08 10:00N 36°36' W 008°36'918.6
2017-Dec-08 09:30N 36°33' W 008°25'1218.7
2017-Dec-08 08:53N 36°29' W 008°11'918.8
2017-Dec-08 08:24N 36°26' W 008°00'  
2017-Dec-04 10:30N 37°57' E 023°35'0 0.0
2017-Dec-04 10:00N 37°57' E 023°35'0 0.0
2017-Dec-04 09:30N 37°57' E 023°35'0 0.0
2017-Dec-04 09:00N 37°57' E 023°35'0 0.0
2017-Dec-04 08:30N 37°57' E 023°35'0 0.0
2017-Dec-04 08:00N 37°57' E 023°35'0 0.0
2017-Dec-04 07:30N 37°57' E 023°35'0 0.0
2017-Dec-04 07:00N 37°57' E 023°35'0 0.0
2017-Dec-04 06:30N 37°57' E 023°35'0 0.0
2017-Dec-04 06:00N 37°57' E 023°35'0 0.0
2017-Dec-04 05:30N 37°57' E 023°35'0 0.0
2017-Dec-04 05:00N 37°57' E 023°35'0 0.0
2017-Dec-04 04:30N 37°57' E 023°35'0 0.0
2017-Dec-04 04:00N 37°57' E 023°35'0 0.0
2017-Dec-04 03:30N 37°57' E 023°35'0 0.0
2017-Dec-04 03:00N 37°57' E 023°35'0 0.0
2017-Dec-04 02:30N 37°57' E 023°35'0 0.0
2017-Dec-04 02:00N 37°57' E 023°35'0 0.0
2017-Dec-04 01:30N 37°57' E 023°35'0 0.0
2017-Dec-04 01:00N 37°57' E 023°35'0 0.1
2017-Dec-04 00:30N 37°57' E 023°35'0 0.0
2017-Dec-04 00:00N 37°57' E 023°35'0 0.0
2017-Dec-03 23:30N 37°57' E 023°35'0 0.0
2017-Dec-03 23:00N 37°57' E 023°35'0 0.0
2017-Dec-03 22:30N 37°57' E 023°35'0 0.2
2017-Dec-03 22:00N 37°57' E 023°35'2 4.3
2017-Dec-03 21:30N 37°55' E 023°35'2 4.1
2017-Dec-03 21:00N 37°53' E 023°36'3 5.2
2017-Dec-03 20:30N 37°51' E 023°38'2 4.0
2017-Dec-03 20:00N 37°50' E 023°40'3 5.6
2017-Dec-03 19:31N 37°47' E 023°41'611.2
2017-Dec-03 19:00N 37°42' E 023°44'713.5
2017-Dec-03 18:31N 37°37' E 023°50'1 1.7
2017-Dec-03 18:01N 37°37' E 023°49'2 4.2
2017-Dec-03 17:31N 37°38' E 023°47'3 5.3
2017-Dec-03 17:00N 37°36' E 023°50'4 7.4
2017-Dec-03 16:31N 37°35' E 023°54'3 6.3
2017-Dec-03 16:01N 37°35' E 023°58'1 1.7
2017-Dec-03 15:30N 37°35' E 023°57'1 1.9
2017-Dec-03 15:00N 37°35' E 023°56'1 1.8
2017-Dec-03 14:30N 37°35' E 023°55'1 1.6
2017-Dec-03 14:01N 37°34' E 023°54'1 1.8
2017-Dec-03 13:31N 37°34' E 023°53'1 2.0
2017-Dec-03 13:00N 37°33' E 023°52'1 1.9
2017-Dec-03 12:31N 37°32' E 023°51'1 1.6
2017-Dec-03 12:01N 37°32' E 023°52'3 6.5
2017-Dec-03 11:31N 37°33' E 023°56'3 6.4
2017-Dec-03 11:01N 37°35' E 023°60'0 0.9
2017-Dec-03 10:30N 37°34' E 024°00'1 2.5
2017-Dec-03 10:01N 37°35' E 023°59'1 2.6
2017-Dec-03 09:31N 37°35' E 023°57'1 2.6
2017-Dec-03 09:01N 37°34' E 023°56'1 2.5
2017-Dec-03 08:31N 37°34' E 023°54'1 2.4
2017-Dec-03 08:01N 37°33' E 023°53'1 2.2
2017-Dec-03 07:30N 37°33' E 023°52'1 2.0
2017-Dec-03 07:01N 37°32' E 023°52'1 1.0
2017-Dec-03 06:31N 37°32' E 023°52'3 6.5
2017-Dec-03 06:01N 37°35' E 023°53'3 5.9
2017-Dec-03 05:31N 37°38' E 023°53'1 1.2
2017-Dec-03 05:01N 37°37' E 023°53'1 1.9
2017-Dec-03 04:31N 37°36' E 023°53'1 1.8
2017-Dec-03 04:01N 37°35' E 023°53'1 1.8
2017-Dec-03 03:31N 37°34' E 023°52'1 1.7
2017-Dec-03 03:01N 37°34' E 023°52'2 4.0
2017-Dec-03 02:30N 37°36' E 023°52'2 4.1
2017-Dec-03 02:01N 37°38' E 023°54'1 1.4
2017-Dec-03 01:31N 37°37' E 023°53'1 1.5
2017-Dec-03 01:01N 37°36' E 023°53'1 1.4
2017-Dec-03 00:31N 37°36' E 023°52'1 1.5
2017-Dec-03 00:00N 37°35' E 023°52'1 1.9
2017-Dec-02 23:31N 37°35' E 023°51'1 1.9
2017-Dec-02 23:01N 37°34' E 023°50'1 1.6
2017-Dec-02 22:31N 37°33' E 023°50'1 1.6
2017-Dec-02 22:00N 37°32' E 023°49'1 1.6
2017-Dec-02 21:30N 37°32' E 023°49'1 1.2
2017-Dec-02 21:01N 37°31' E 023°50'1 1.3
2017-Dec-02 20:30N 37°32' E 023°51'3 5.3
2017-Dec-02 20:01N 37°34' E 023°52'1 1.6
2017-Dec-02 19:31N 37°35' E 023°51'1 1.7
2017-Dec-02 19:01N 37°34' E 023°51'1 1.7
2017-Dec-02 18:30N 37°33' E 023°51'1 1.9
2017-Dec-02 18:01N 37°32' E 023°50'1 1.6
2017-Dec-02 17:30N 37°31' E 023°50'1 1.1
2017-Dec-02 17:01N 37°31' E 023°51'2 3.7
2017-Dec-02 16:31N 37°33' E 023°51'4 7.4
2017-Dec-02 16:01N 37°37' E 023°51'1 2.6
2017-Dec-02 15:31N 37°38' E 023°52'1 2.1
2017-Dec-02 15:00N 37°37' E 023°51'1 2.0
2017-Dec-02 14:31N 37°36' E 023°51'1 1.8
2017-Dec-02 14:00N 37°35' E 023°50'1 1.7
2017-Dec-02 13:30N 37°35' E 023°50'1 1.7
2017-Dec-02 13:01N 37°34' E 023°50'1 1.6
2017-Dec-02 12:30N 37°33' E 023°50'0 1.0
2017-Dec-02 12:01N 37°33' E 023°50'2 4.7
2017-Dec-02 11:30N 37°35' E 023°51'3 5.6
2017-Dec-02 11:01N 37°38' E 023°53'1 2.4
2017-Dec-02 10:31N 37°36' E 023°52'1 1.6
2017-Dec-02 10:01N 37°36' E 023°52'1 1.6
2017-Dec-02 09:31N 37°35' E 023°53'1 1.6
2017-Dec-02 09:01N 37°34' E 023°53'0 0.9
2017-Dec-02 08:31N 37°34' E 023°53'2 3.7
2017-Dec-02 08:01N 37°35' E 023°52'0 0.8
2017-Dec-02 07:31N 37°36' E 023°52'1 2.0
2017-Dec-02 07:01N 37°35' E 023°51'1 2.1
2017-Dec-02 06:31N 37°34' E 023°51'1 2.0
2017-Dec-02 06:01N 37°33' E 023°51'1 1.4
2017-Dec-02 05:30N 37°32' E 023°51'2 4.1
2017-Dec-02 05:01N 37°34' E 023°52'4 7.3
2017-Dec-02 04:31N 37°38' E 023°52'1 2.3
2017-Dec-02 04:01N 37°39' E 023°52'1 2.0
2017-Dec-02 03:31N 37°38' E 023°52'1 2.0
2017-Dec-02 03:01N 37°37' E 023°52'1 2.0
2017-Dec-02 02:31N 37°36' E 023°51'1 1.8
2017-Dec-02 02:00N 37°35' E 023°51'1 1.6
2017-Dec-02 01:31N 37°35' E 023°51'1 1.6
2017-Dec-02 01:01N 37°34' E 023°51'1 2.0
2017-Dec-02 00:31N 37°33' E 023°51'1 2.1
2017-Dec-02 00:01N 37°32' E 023°51'0 0.6
2017-Dec-01 23:30N 37°32' E 023°51'3 6.0
2017-Dec-01 23:01N 37°34' E 023°53'0 0.9
2017-Dec-01 22:30N 37°35' E 023°52'1 1.5
2017-Dec-01 22:01N 37°34' E 023°52'1 1.5
2017-Dec-01 21:30N 37°33' E 023°52'1 1.5
2017-Dec-01 21:00N 37°32' E 023°52'1 1.0
2017-Dec-01 20:31N 37°32' E 023°51'1 1.5
2017-Dec-01 20:00N 37°33' E 023°52'3 6.6
2017-Dec-01 19:31N 37°35' E 023°54'1 1.7
2017-Dec-01 19:00N 37°36' E 023°55'1 1.5
2017-Dec-01 18:30N 37°35' E 023°54'1 1.5
2017-Dec-01 18:00N 37°35' E 023°53'1 1.8
2017-Dec-01 17:30N 37°35' E 023°52'  
Track history (hours):
 
Tides and Currents Weather Stations Pressure Air Temp Water Temp Dewpoint Dewpoint Depression Visibility Wind Speed Wind Dir Waves Ship Positions

Titan

Last reported at 2017-Dec-11 17:01 UTC. Time now 2017-Dec-11 20:44 UTC.
Position N 53°60' E 008°18'.

Length 369 m; draft 13.9 m.

Type: Ship (hazmat cat A). MMSI: 249558000.

Date/timePositionNaut miles runAvg speedWind from/ knotsBaromVisibWave heightAir tempDewpointWater temp
2017-Dec-11 17:01N 53°60' E 008°18'815.1
2017-Dec-11 16:30N 53°59' E 008°05'815.5
2017-Dec-11 16:00N 54°03' E 007°54'611.3
2017-Dec-11 15:30N 54°06' E 007°45'4 6.8
2017-Dec-11 14:58N 54°07' E 007°39'9415.4
2017-Dec-11 08:51N 53°45' E 005°04'514.2
2017-Dec-11 08:31N 53°42' E 004°59'816.8
2017-Dec-11 08:00N 53°35' E 004°50'917.8
2017-Dec-11 07:30N 53°27' E 004°43'917.3
2017-Dec-11 07:00N 53°19' E 004°38'917.2
2017-Dec-11 06:30N 53°11' E 004°32'917.2
2017-Dec-11 06:01N 53°04' E 004°25'917.3
2017-Dec-11 05:30N 52°56' E 004°18'917.2
2017-Dec-11 05:01N 52°49' E 004°11'917.3
2017-Dec-11 04:31N 52°42' E 004°01'917.2
2017-Dec-11 04:00N 52°36' E 003°52'817.0
2017-Dec-11 03:30N 52°30' E 003°42'917.0
2017-Dec-11 02:58N 52°23' E 003°32'816.9
2017-Dec-11 02:31N 52°17' E 003°23'5617.1
2017-Dec-10 23:15N 51°37' E 002°22'417.2
2017-Dec-10 23:00N 51°33' E 002°18'917.7
2017-Dec-10 22:30N 51°27' E 002°08'917.8
2017-Dec-10 22:00N 51°20' E 001°59'917.9
2017-Dec-10 21:30N 51°13' E 001°49'918.2
2017-Dec-10 21:00N 51°06' E 001°41'917.9
2017-Dec-10 20:30N 50°59' E 001°31'917.9
2017-Dec-10 20:01N 50°51' E 001°25'918.0
2017-Dec-10 19:30N 50°43' E 001°20'2816.2
2017-Dec-10 17:49N 50°28' E 000°44'1616.0
2017-Dec-10 16:47N 50°24' E 000°19'616.2
2017-Dec-10 16:26N 50°23' E 000°10'716.2
2017-Dec-10 16:00N 50°21' W 000°00'816.4
2017-Dec-10 15:30N 50°19' W 000°13'816.2
2017-Dec-10 15:00N 50°17' W 000°25'816.0
2017-Dec-10 14:30N 50°15' W 000°38'4216.5
2017-Dec-10 11:58N 50°04' W 001°41'2216.8
2017-Dec-10 10:40N 49°58' W 002°13'316.4
2017-Dec-10 10:28N 49°57' W 002°18'716.2
2017-Dec-10 10:00N 49°54' W 002°29'816.4
2017-Dec-10 09:31N 49°51' W 002°41'1017.8
2017-Dec-10 08:58N 49°49' W 002°55'817.4
2017-Dec-10 08:30N 49°47' W 003°07'817.0
2017-Dec-10 08:01N 49°42' W 003°18'1016.7
2017-Dec-10 07:26N 49°37' W 003°30'4217.2
2017-Dec-10 05:00N 49°16' W 004°25'917.4
2017-Dec-10 04:30N 49°11' W 004°37'917.2
2017-Dec-10 04:00N 49°07' W 004°49'918.5
2017-Dec-10 03:30N 49°03' W 005°01'919.2
2017-Dec-10 03:00N 48°58' W 005°14'1019.1
2017-Dec-10 02:30N 48°53' W 005°26'918.9
2017-Dec-10 02:01N 48°47' W 005°38'1018.8
2017-Dec-10 01:29N 48°39' W 005°45'918.8
2017-Dec-10 01:00N 48°31' W 005°51'3218.9
2017-Dec-09 23:18N 48°02' W 006°14'52319.6
2017-Dec-08 20:35N 39°43' W 009°51'220.0
2017-Dec-08 20:30N 39°42' W 009°51'1020.2
2017-Dec-08 20:00N 39°31' W 009°51'1020.7
2017-Dec-08 19:30N 39°21' W 009°52'1020.5
2017-Dec-08 19:00N 39°11' W 009°53'1020.2
2017-Dec-08 18:30N 39°01' W 009°53'1020.2
2017-Dec-08 18:00N 38°51' W 009°53'1020.4
2017-Dec-08 17:30N 38°41' W 009°52'1020.5
2017-Dec-08 17:00N 38°31' W 009°48'1020.2
2017-Dec-08 16:30N 38°21' W 009°44'1020.3
2017-Dec-08 16:00N 38°11' W 009°41'1020.5
2017-Dec-08 15:30N 38°01' W 009°37'1020.8
2017-Dec-08 15:00N 37°51' W 009°33'1020.5
2017-Dec-08 14:30N 37°41' W 009°30'1120.4
2017-Dec-08 13:59N 37°31' W 009°27'2920.4
2017-Dec-08 12:34N 37°02' W 009°22'320.1
2017-Dec-08 12:25N 36°60' W 009°21'819.7
2017-Dec-08 12:00N 36°52' W 009°17'1019.6
2017-Dec-08 11:30N 36°46' W 009°08'918.5
2017-Dec-08 11:00N 36°42' W 008°57'918.2
2017-Dec-08 10:30N 36°39' W 008°47'918.7
2017-Dec-08 10:00N 36°36' W 008°36'918.6
2017-Dec-08 09:30N 36°33' W 008°25'1218.7
2017-Dec-08 08:53N 36°29' W 008°11'918.8
2017-Dec-08 08:24N 36°26' W 008°00'  
2017-Dec-04 10:30N 37°57' E 023°35'0 0.0
2017-Dec-04 10:00N 37°57' E 023°35'0 0.0
2017-Dec-04 09:30N 37°57' E 023°35'0 0.0
2017-Dec-04 09:00N 37°57' E 023°35'0 0.0
2017-Dec-04 08:30N 37°57' E 023°35'0 0.0
2017-Dec-04 08:00N 37°57' E 023°35'0 0.0
2017-Dec-04 07:30N 37°57' E 023°35'0 0.0
2017-Dec-04 07:00N 37°57' E 023°35'0 0.0
2017-Dec-04 06:30N 37°57' E 023°35'0 0.0
2017-Dec-04 06:00N 37°57' E 023°35'0 0.0
2017-Dec-04 05:30N 37°57' E 023°35'0 0.0
2017-Dec-04 05:00N 37°57' E 023°35'0 0.0
2017-Dec-04 04:30N 37°57' E 023°35'0 0.0
2017-Dec-04 04:00N 37°57' E 023°35'0 0.0
2017-Dec-04 03:30N 37°57' E 023°35'0 0.0
2017-Dec-04 03:00N 37°57' E 023°35'0 0.0
2017-Dec-04 02:30N 37°57' E 023°35'0 0.0
2017-Dec-04 02:00N 37°57' E 023°35'0 0.0
2017-Dec-04 01:30N 37°57' E 023°35'0 0.0
2017-Dec-04 01:00N 37°57' E 023°35'0 0.1
2017-Dec-04 00:30N 37°57' E 023°35'0 0.0
2017-Dec-04 00:00N 37°57' E 023°35'0 0.0
2017-Dec-03 23:30N 37°57' E 023°35'0 0.0
2017-Dec-03 23:00N 37°57' E 023°35'0 0.0
2017-Dec-03 22:30N 37°57' E 023°35'0 0.2
2017-Dec-03 22:00N 37°57' E 023°35'2 4.3
2017-Dec-03 21:30N 37°55' E 023°35'2 4.1
2017-Dec-03 21:00N 37°53' E 023°36'3 5.2
2017-Dec-03 20:30N 37°51' E 023°38'2 4.0
2017-Dec-03 20:00N 37°50' E 023°40'3 5.6
2017-Dec-03 19:31N 37°47' E 023°41'611.2
2017-Dec-03 19:00N 37°42' E 023°44'713.5
2017-Dec-03 18:31N 37°37' E 023°50'1 1.7
2017-Dec-03 18:01N 37°37' E 023°49'2 4.2
2017-Dec-03 17:31N 37°38' E 023°47'3 5.3
2017-Dec-03 17:00N 37°36' E 023°50'4 7.4
2017-Dec-03 16:31N 37°35' E 023°54'3 6.3
2017-Dec-03 16:01N 37°35' E 023°58'1 1.7
2017-Dec-03 15:30N 37°35' E 023°57'1 1.9
2017-Dec-03 15:00N 37°35' E 023°56'1 1.8
2017-Dec-03 14:30N 37°35' E 023°55'1 1.6
2017-Dec-03 14:01N 37°34' E 023°54'1 1.8
2017-Dec-03 13:31N 37°34' E 023°53'1 2.0
2017-Dec-03 13:00N 37°33' E 023°52'1 1.9
2017-Dec-03 12:31N 37°32' E 023°51'1 1.6
2017-Dec-03 12:01N 37°32' E 023°52'3 6.5
2017-Dec-03 11:31N 37°33' E 023°56'3 6.4
2017-Dec-03 11:01N 37°35' E 023°60'0 0.9
2017-Dec-03 10:30N 37°34' E 024°00'1 2.5
2017-Dec-03 10:01N 37°35' E 023°59'1 2.6
2017-Dec-03 09:31N 37°35' E 023°57'1 2.6
2017-Dec-03 09:01N 37°34' E 023°56'1 2.5
2017-Dec-03 08:31N 37°34' E 023°54'1 2.4
2017-Dec-03 08:01N 37°33' E 023°53'1 2.2
2017-Dec-03 07:30N 37°33' E 023°52'1 2.0
2017-Dec-03 07:01N 37°32' E 023°52'1 1.0
2017-Dec-03 06:31N 37°32' E 023°52'3 6.5
2017-Dec-03 06:01N 37°35' E 023°53'3 5.9
2017-Dec-03 05:31N 37°38' E 023°53'1 1.2
2017-Dec-03 05:01N 37°37' E 023°53'1 1.9
2017-Dec-03 04:31N 37°36' E 023°53'1 1.8
2017-Dec-03 04:01N 37°35' E 023°53'1 1.8
2017-Dec-03 03:31N 37°34' E 023°52'1 1.7
2017-Dec-03 03:01N 37°34' E 023°52'2 4.0
2017-Dec-03 02:30N 37°36' E 023°52'2 4.1
2017-Dec-03 02:01N 37°38' E 023°54'1 1.4
2017-Dec-03 01:31N 37°37' E 023°53'1 1.5
2017-Dec-03 01:01N 37°36' E 023°53'1 1.4
2017-Dec-03 00:31N 37°36' E 023°52'1 1.5
2017-Dec-03 00:00N 37°35' E 023°52'1 1.9
2017-Dec-02 23:31N 37°35' E 023°51'1 1.9
2017-Dec-02 23:01N 37°34' E 023°50'1 1.6
2017-Dec-02 22:31N 37°33' E 023°50'1 1.6
2017-Dec-02 22:00N 37°32' E 023°49'1 1.6
2017-Dec-02 21:30N 37°32' E 023°49'1 1.2
2017-Dec-02 21:01N 37°31' E 023°50'1 1.3
2017-Dec-02 20:30N 37°32' E 023°51'3 5.3
2017-Dec-02 20:01N 37°34' E 023°52'1 1.6
2017-Dec-02 19:31N 37°35' E 023°51'1 1.7
2017-Dec-02 19:01N 37°34' E 023°51'1 1.7
2017-Dec-02 18:30N 37°33' E 023°51'1 1.9
2017-Dec-02 18:01N 37°32' E 023°50'1 1.6
2017-Dec-02 17:30N 37°31' E 023°50'1 1.1
2017-Dec-02 17:01N 37°31' E 023°51'2 3.7
2017-Dec-02 16:31N 37°33' E 023°51'4 7.4
2017-Dec-02 16:01N 37°37' E 023°51'1 2.6
2017-Dec-02 15:31N 37°38' E 023°52'1 2.1
2017-Dec-02 15:00N 37°37' E 023°51'1 2.0
2017-Dec-02 14:31N 37°36' E 023°51'1 1.8
2017-Dec-02 14:00N 37°35' E 023°50'1 1.7
2017-Dec-02 13:30N 37°35' E 023°50'1 1.7
2017-Dec-02 13:01N 37°34' E 023°50'1 1.6
2017-Dec-02 12:30N 37°33' E 023°50'0 1.0
2017-Dec-02 12:01N 37°33' E 023°50'2 4.7
2017-Dec-02 11:30N 37°35' E 023°51'3 5.6
2017-Dec-02 11:01N 37°38' E 023°53'1 2.4
2017-Dec-02 10:31N 37°36' E 023°52'1 1.6
2017-Dec-02 10:01N 37°36' E 023°52'1 1.6
2017-Dec-02 09:31N 37°35' E 023°53'1 1.6
2017-Dec-02 09:01N 37°34' E 023°53'0 0.9
2017-Dec-02 08:31N 37°34' E 023°53'2 3.7
2017-Dec-02 08:01N 37°35' E 023°52'0 0.8
2017-Dec-02 07:31N 37°36' E 023°52'1 2.0
2017-Dec-02 07:01N 37°35' E 023°51'1 2.1
2017-Dec-02 06:31N 37°34' E 023°51'1 2.0
2017-Dec-02 06:01N 37°33' E 023°51'1 1.4
2017-Dec-02 05:30N 37°32' E 023°51'2 4.1
2017-Dec-02 05:01N 37°34' E 023°52'4 7.3
2017-Dec-02 04:31N 37°38' E 023°52'1 2.3
2017-Dec-02 04:01N 37°39' E 023°52'1 2.0
2017-Dec-02 03:31N 37°38' E 023°52'1 2.0
2017-Dec-02 03:01N 37°37' E 023°52'1 2.0
2017-Dec-02 02:31N 37°36' E 023°51'1 1.8
2017-Dec-02 02:00N 37°35' E 023°51'1 1.6
2017-Dec-02 01:31N 37°35' E 023°51'1 1.6
2017-Dec-02 01:01N 37°34' E 023°51'1 2.0
2017-Dec-02 00:31N 37°33' E 023°51'1 2.1
2017-Dec-02 00:01N 37°32' E 023°51'0 0.6
2017-Dec-01 23:30N 37°32' E 023°51'3 6.0
2017-Dec-01 23:01N 37°34' E 023°53'0 0.9
2017-Dec-01 22:30N 37°35' E 023°52'1 1.5
2017-Dec-01 22:01N 37°34' E 023°52'1 1.5
2017-Dec-01 21:30N 37°33' E 023°52'1 1.5
2017-Dec-01 21:00N 37°32' E 023°52'1 1.0
2017-Dec-01 20:31N 37°32' E 023°51'1 1.5
2017-Dec-01 20:00N 37°33' E 023°52'3 6.6
2017-Dec-01 19:31N 37°35' E 023°54'1 1.7
2017-Dec-01 19:00N 37°36' E 023°55'1 1.5
2017-Dec-01 18:30N 37°35' E 023°54'1 1.5
2017-Dec-01 18:00N 37°35' E 023°53'1 1.8
2017-Dec-01 17:30N 37°35' E 023°52'  

Dump ship's entire track history